createdAt,value
2022-12-20T00:00:41.716Z,3.81
2022-12-20T00:01:41.734Z,3.81
2022-12-20T00:02:41.930Z,3.78
2022-12-20T00:03:41.741Z,3.78
2022-12-20T00:04:41.684Z,3.78
2022-12-20T00:05:41.709Z,3.77
2022-12-20T00:06:41.772Z,3.78
2022-12-20T00:07:41.617Z,3.75
2022-12-20T00:08:41.678Z,3.75
2022-12-20T00:09:41.611Z,3.77
2022-12-20T00:10:41.618Z,3.75
2022-12-20T00:11:41.567Z,3.75
2022-12-20T00:12:41.599Z,3.75
2022-12-20T00:13:41.545Z,3.75
2022-12-20T00:14:41.551Z,3.77
2022-12-20T00:15:41.529Z,3.77
2022-12-20T00:16:41.519Z,3.78
2022-12-20T00:17:41.533Z,3.78
2022-12-20T00:18:41.494Z,3.77
2022-12-20T00:19:41.495Z,3.77
2022-12-20T00:20:41.462Z,3.80
2022-12-20T00:21:41.439Z,3.80
2022-12-20T00:22:41.429Z,3.80
2022-12-20T00:23:41.423Z,3.80
2022-12-20T00:24:41.430Z,3.80
2022-12-20T00:25:41.423Z,3.75
2022-12-20T00:26:41.389Z,3.78
2022-12-20T00:27:41.360Z,3.80
2022-12-20T00:28:41.362Z,3.81
2022-12-20T00:29:41.346Z,3.81
2022-12-20T00:30:41.338Z,3.82
2022-12-20T00:31:41.336Z,3.82
2022-12-20T00:32:41.300Z,3.84
2022-12-20T00:33:41.319Z,3.82
2022-12-20T00:34:41.276Z,3.82
2022-12-20T00:35:41.306Z,3.82
2022-12-20T00:36:41.237Z,3.82
2022-12-20T00:37:41.304Z,3.81
2022-12-20T00:38:41.267Z,3.81
2022-12-20T00:39:41.239Z,3.81
2022-12-20T00:40:41.198Z,3.81
2022-12-20T00:41:41.197Z,3.80
2022-12-20T00:42:41.183Z,3.82
2022-12-20T00:43:41.166Z,3.84
2022-12-20T00:44:41.138Z,3.84
2022-12-20T00:45:41.126Z,3.89
2022-12-20T00:46:41.134Z,3.90
2022-12-20T00:47:41.115Z,3.89
2022-12-20T00:48:41.099Z,3.92
2022-12-20T00:49:41.094Z,3.93
2022-12-20T00:50:41.070Z,3.93
2022-12-20T00:51:41.068Z,3.95
2022-12-20T00:52:41.040Z,3.98
2022-12-20T00:53:41.053Z,3.98
2022-12-20T00:54:41.015Z,3.96
2022-12-20T00:55:41.026Z,3.95
2022-12-20T00:56:41.007Z,3.95
2022-12-20T00:57:40.993Z,3.96
2022-12-20T00:58:40.975Z,3.96
2022-12-20T00:59:40.976Z,3.98
2022-12-20T01:00:40.968Z,3.96
2022-12-20T01:01:41.081Z,3.96
2022-12-20T01:02:41.087Z,3.95
2022-12-20T01:03:40.964Z,3.99
2022-12-20T01:04:40.885Z,4.00
2022-12-20T01:05:40.890Z,3.98
2022-12-20T01:06:40.861Z,3.96
2022-12-20T01:07:40.850Z,3.96
2022-12-20T01:08:40.846Z,3.96
2022-12-20T01:09:40.828Z,3.96
2022-12-20T01:10:40.829Z,3.96
2022-12-20T01:11:40.829Z,3.99
2022-12-20T01:12:40.808Z,3.99
2022-12-20T01:13:40.788Z,4.02
2022-12-20T01:14:40.761Z,4.06
2022-12-20T01:15:40.748Z,4.07
2022-12-20T01:16:40.886Z,4.08
2022-12-20T01:17:40.748Z,4.11
2022-12-20T01:18:40.723Z,4.08
2022-12-20T01:19:40.726Z,4.11
2022-12-20T01:20:40.719Z,4.13
2022-12-20T01:21:40.709Z,4.10
2022-12-20T01:22:47.156Z,4.10
2022-12-20T01:23:41.654Z,4.10
2022-12-20T01:24:40.662Z,4.10
2022-12-20T01:25:40.632Z,4.11
2022-12-20T01:26:40.622Z,4.13
2022-12-20T01:27:40.621Z,4.16
2022-12-20T01:28:40.628Z,4.20
2022-12-20T01:29:40.562Z,4.20
2022-12-20T01:30:40.554Z,4.18
2022-12-20T01:31:40.611Z,4.20
2022-12-20T01:32:40.551Z,4.17
2022-12-20T01:33:40.524Z,4.18
2022-12-20T01:34:40.527Z,4.20
2022-12-20T01:35:40.526Z,4.18
2022-12-20T01:36:40.475Z,4.20
2022-12-20T01:37:40.472Z,4.20
2022-12-20T01:38:40.452Z,4.24
2022-12-20T01:39:40.439Z,4.26
2022-12-20T01:40:40.540Z,4.28
2022-12-20T01:41:40.438Z,4.28
2022-12-20T01:42:40.441Z,4.26
2022-12-20T01:43:40.418Z,4.21
2022-12-20T01:44:40.373Z,4.24
2022-12-20T01:45:40.418Z,4.21
2022-12-20T01:46:40.367Z,4.18
2022-12-20T01:47:40.337Z,4.18
2022-12-20T01:48:40.318Z,4.17
2022-12-20T01:49:40.304Z,4.17
2022-12-20T01:50:40.311Z,4.16
2022-12-20T01:51:40.288Z,4.18
2022-12-20T01:52:40.268Z,4.18
2022-12-20T01:53:40.277Z,4.17
2022-12-20T01:54:40.257Z,4.17
2022-12-20T01:55:40.276Z,4.18
2022-12-20T01:56:40.243Z,4.24
2022-12-20T01:57:40.248Z,4.21
2022-12-20T01:58:40.194Z,4.21
2022-12-20T01:59:40.237Z,4.24
2022-12-20T02:00:40.173Z,4.21
2022-12-20T02:01:40.291Z,4.21
2022-12-20T02:02:40.264Z,4.21
2022-12-20T02:03:40.216Z,4.21
2022-12-20T02:04:40.113Z,4.21
2022-12-20T02:05:40.130Z,4.21
2022-12-20T02:06:40.102Z,4.20
2022-12-20T02:07:40.086Z,4.18
2022-12-20T02:08:40.070Z,4.18
2022-12-20T02:09:40.067Z,4.18
2022-12-20T02:10:40.041Z,4.18
2022-12-20T02:11:40.031Z,4.20
2022-12-20T02:12:40.040Z,4.18
2022-12-20T02:13:40.027Z,4.20
2022-12-20T02:14:39.989Z,4.20
2022-12-20T02:15:39.997Z,4.21
2022-12-20T02:16:40.017Z,4.24
2022-12-20T02:17:39.975Z,4.31
2022-12-20T02:18:39.950Z,4.36
2022-12-20T02:19:39.938Z,4.34
2022-12-20T02:20:39.916Z,4.35
2022-12-20T02:21:40.103Z,4.36
2022-12-20T02:22:39.887Z,4.39
2022-12-20T02:23:39.888Z,4.43
2022-12-20T02:24:39.869Z,4.44
2022-12-20T02:25:39.848Z,4.46
2022-12-20T02:26:39.835Z,4.47
2022-12-20T02:27:39.844Z,4.50
2022-12-20T02:28:39.821Z,4.50
2022-12-20T02:29:39.824Z,4.51
2022-12-20T02:30:39.781Z,4.51
2022-12-20T02:31:39.836Z,4.50
2022-12-20T02:32:39.788Z,4.46
2022-12-20T02:33:39.761Z,4.43
2022-12-20T02:34:39.774Z,4.43
2022-12-20T02:35:39.803Z,4.39
2022-12-20T02:36:39.731Z,4.36
2022-12-20T02:37:39.702Z,4.35
2022-12-20T02:38:39.696Z,4.36
2022-12-20T02:39:39.686Z,4.36
2022-12-20T02:40:39.666Z,4.36
2022-12-20T02:41:39.671Z,4.36
2022-12-20T02:42:39.631Z,4.38
2022-12-20T02:43:39.660Z,4.39
2022-12-20T02:44:39.608Z,4.42
2022-12-20T02:45:39.621Z,4.43
2022-12-20T02:46:39.609Z,4.39
2022-12-20T02:47:39.575Z,4.44
2022-12-20T02:48:39.578Z,4.46
2022-12-20T02:49:39.560Z,4.43
2022-12-20T02:50:39.536Z,4.42
2022-12-20T02:51:39.530Z,4.43
2022-12-20T02:52:42.380Z,4.43
2022-12-20T02:53:41.293Z,4.42
2022-12-20T02:54:39.481Z,4.42
2022-12-20T02:55:39.476Z,4.38
2022-12-20T02:56:39.448Z,4.36
2022-12-20T02:57:39.446Z,4.38
2022-12-20T02:58:39.448Z,4.35
2022-12-20T02:59:39.445Z,4.36
2022-12-20T03:00:39.422Z,4.42
2022-12-20T03:01:39.557Z,4.42
2022-12-20T03:02:39.570Z,4.43
2022-12-20T03:03:39.411Z,4.43
2022-12-20T03:04:39.358Z,4.42
2022-12-20T03:05:39.367Z,4.43
2022-12-20T03:06:39.328Z,4.43
2022-12-20T03:07:39.324Z,4.43
2022-12-20T03:08:39.812Z,4.44
2022-12-20T03:09:39.300Z,4.44
2022-12-20T03:10:39.273Z,4.43
2022-12-20T03:11:39.275Z,4.47
2022-12-20T03:12:39.252Z,4.49
2022-12-20T03:13:39.252Z,4.51
2022-12-20T03:14:39.229Z,4.53
2022-12-20T03:15:39.233Z,4.54
2022-12-20T03:16:39.254Z,4.56
2022-12-20T03:17:40.194Z,4.54
2022-12-20T03:18:39.519Z,4.54
2022-12-20T03:19:39.181Z,4.54
2022-12-20T03:20:46.246Z,4.54
2022-12-20T03:21:39.159Z,4.59
2022-12-20T03:22:39.142Z,4.61
2022-12-20T03:23:41.819Z,4.62
2022-12-20T03:24:39.136Z,4.62
2022-12-20T03:25:39.111Z,4.64
2022-12-20T03:26:39.080Z,4.61
2022-12-20T03:27:39.099Z,4.59
2022-12-20T03:28:40.030Z,4.57
2022-12-20T03:29:39.086Z,4.57
2022-12-20T03:30:39.124Z,4.57
2022-12-20T03:31:39.029Z,4.57
2022-12-20T03:32:39.006Z,4.57
2022-12-20T03:33:39.001Z,4.59
2022-12-20T03:34:38.977Z,4.61
2022-12-20T03:35:38.990Z,4.62
2022-12-20T03:36:38.953Z,4.64
2022-12-20T03:37:39.011Z,4.68
2022-12-20T03:38:38.930Z,4.71
2022-12-20T03:39:38.925Z,4.71
2022-12-20T03:40:38.898Z,4.74
2022-12-20T03:41:38.899Z,4.71
2022-12-20T03:42:38.875Z,4.74
2022-12-20T03:43:38.865Z,4.74
2022-12-20T03:44:38.889Z,4.77
2022-12-20T03:45:38.853Z,4.83
2022-12-20T03:46:39.359Z,4.83
2022-12-20T03:47:38.815Z,4.84
2022-12-20T03:48:38.832Z,4.87
2022-12-20T03:49:38.920Z,4.87
2022-12-20T03:50:38.773Z,4.86
2022-12-20T03:51:38.774Z,4.84
2022-12-20T03:52:38.777Z,4.87
2022-12-20T03:53:38.756Z,4.86
2022-12-20T03:54:38.723Z,4.86
2022-12-20T03:55:38.743Z,4.87
2022-12-20T03:56:38.697Z,4.84
2022-12-20T03:57:38.699Z,4.80
2022-12-20T03:58:38.669Z,4.86
2022-12-20T03:59:38.677Z,4.83
2022-12-20T04:00:38.640Z,4.83
2022-12-20T04:01:38.980Z,4.80
2022-12-20T04:02:38.818Z,4.79
2022-12-20T04:03:38.697Z,4.80
2022-12-20T04:04:38.602Z,4.84
2022-12-20T04:05:38.616Z,4.84
2022-12-20T04:06:38.559Z,4.86
2022-12-20T04:07:38.570Z,4.86
2022-12-20T04:08:38.549Z,4.86
2022-12-20T04:09:38.542Z,4.88
2022-12-20T04:10:38.529Z,4.88
2022-12-20T04:11:38.512Z,4.90
2022-12-20T04:12:38.497Z,4.90
2022-12-20T04:13:38.500Z,4.90
2022-12-20T04:14:38.484Z,4.93
2022-12-20T04:15:38.516Z,4.93
2022-12-20T04:16:38.550Z,4.93
2022-12-20T04:17:38.437Z,4.90
2022-12-20T04:18:38.411Z,4.90
2022-12-20T04:19:38.418Z,4.91
2022-12-20T04:20:38.387Z,4.91
2022-12-20T04:21:38.378Z,4.94
2022-12-20T04:22:38.365Z,4.96
2022-12-20T04:23:38.355Z,4.96
2022-12-20T04:24:38.390Z,4.96
2022-12-20T04:25:38.345Z,4.94
2022-12-20T04:26:38.317Z,4.94
2022-12-20T04:27:38.304Z,4.91
2022-12-20T04:28:38.288Z,4.87
2022-12-20T04:29:38.289Z,4.84
2022-12-20T04:30:38.266Z,4.83
2022-12-20T04:31:38.366Z,4.80
2022-12-20T04:32:38.245Z,4.80
2022-12-20T04:33:38.255Z,4.83
2022-12-20T04:34:38.220Z,4.83
2022-12-20T04:35:38.209Z,4.80
2022-12-20T04:36:38.192Z,4.79
2022-12-20T04:37:38.172Z,4.79
2022-12-20T04:38:38.160Z,4.77
2022-12-20T04:39:38.164Z,4.75
2022-12-20T04:40:38.154Z,4.74
2022-12-20T04:41:38.121Z,4.72
2022-12-20T04:42:38.111Z,4.74
2022-12-20T04:43:38.105Z,4.74
2022-12-20T04:44:38.112Z,4.72
2022-12-20T04:45:38.075Z,4.72
2022-12-20T04:46:38.202Z,4.69
2022-12-20T04:47:38.059Z,4.68
2022-12-20T04:48:56.475Z,4.65
2022-12-20T04:49:39.022Z,4.65
2022-12-20T04:50:38.019Z,4.67
2022-12-20T04:51:37.999Z,4.64
2022-12-20T04:52:43.492Z,4.61
2022-12-20T04:53:38.969Z,4.59
2022-12-20T04:54:37.960Z,4.54
2022-12-20T04:55:37.940Z,4.51
2022-12-20T04:56:37.937Z,4.50
2022-12-20T04:57:37.908Z,4.51
2022-12-20T04:58:37.906Z,4.50
2022-12-20T04:59:37.887Z,4.47
2022-12-20T05:00:37.906Z,4.43
2022-12-20T05:01:38.027Z,4.46
2022-12-20T05:02:37.993Z,4.43
2022-12-20T05:03:37.965Z,4.38
2022-12-20T05:04:37.969Z,4.34
2022-12-20T05:05:37.807Z,4.34
2022-12-20T05:06:37.830Z,4.32
2022-12-20T05:07:37.786Z,4.34
2022-12-20T05:08:37.823Z,4.36
2022-12-20T05:09:37.812Z,4.38
2022-12-20T05:10:37.755Z,4.36
2022-12-20T05:11:37.747Z,4.35
2022-12-20T05:12:37.742Z,4.35
2022-12-20T05:13:37.757Z,4.35
2022-12-20T05:14:37.753Z,4.35
2022-12-20T05:15:37.747Z,4.36
2022-12-20T05:16:37.802Z,4.35
2022-12-20T05:17:37.716Z,4.39
2022-12-20T05:18:40.539Z,4.42
2022-12-20T05:19:38.636Z,4.47
2022-12-20T05:20:37.634Z,4.50
2022-12-20T05:21:38.189Z,4.53
2022-12-20T05:22:37.626Z,4.56
2022-12-20T05:23:37.579Z,4.59
2022-12-20T05:24:37.582Z,4.62
2022-12-20T05:25:37.552Z,4.65
2022-12-20T05:26:37.553Z,4.65
2022-12-20T05:27:37.530Z,4.65
2022-12-20T05:28:37.539Z,4.64
2022-12-20T05:29:37.789Z,4.61
2022-12-20T05:30:37.928Z,4.64
2022-12-20T05:31:37.545Z,4.64
2022-12-20T05:32:37.480Z,4.61
2022-12-20T05:33:37.612Z,4.61
2022-12-20T05:34:37.489Z,4.57
2022-12-20T05:35:37.430Z,4.57
2022-12-20T05:36:37.439Z,4.56
2022-12-20T05:37:37.410Z,4.56
2022-12-20T05:38:37.431Z,4.57
2022-12-20T05:39:37.419Z,4.61
2022-12-20T05:40:37.377Z,4.62
2022-12-20T05:41:37.545Z,4.64
2022-12-20T05:42:37.530Z,4.64
2022-12-20T05:43:37.547Z,4.64
2022-12-20T05:44:37.346Z,4.64
2022-12-20T05:45:37.295Z,4.67
2022-12-20T05:46:37.349Z,4.65
2022-12-20T05:47:37.283Z,4.68
2022-12-20T05:48:37.287Z,4.65
2022-12-20T05:49:37.255Z,4.64
2022-12-20T05:50:37.233Z,4.67
2022-12-20T05:51:37.216Z,4.64
2022-12-20T05:52:37.244Z,4.65
2022-12-20T05:53:37.199Z,4.72
2022-12-20T05:54:37.207Z,4.79
2022-12-20T05:55:37.209Z,4.77
2022-12-20T05:56:37.168Z,4.79
2022-12-20T05:57:37.154Z,4.83
2022-12-20T05:58:37.132Z,4.84
2022-12-20T05:59:37.164Z,4.83
2022-12-20T06:00:37.112Z,4.87
2022-12-20T06:01:37.293Z,4.87
2022-12-20T06:02:37.330Z,4.87
2022-12-20T06:03:37.209Z,4.90
2022-12-20T06:04:37.064Z,4.91
2022-12-20T06:05:37.059Z,4.93
2022-12-20T06:06:37.070Z,4.96
2022-12-20T06:07:37.008Z,4.97
2022-12-20T06:08:37.028Z,4.96
2022-12-20T06:09:37.250Z,4.96
2022-12-20T06:10:37.162Z,4.99
2022-12-20T06:11:36.979Z,5.02
2022-12-20T06:12:36.995Z,5.02
2022-12-20T06:13:36.947Z,5.02
2022-12-20T06:14:36.936Z,5.04
2022-12-20T06:15:36.928Z,5.02
2022-12-20T06:16:37.095Z,5.05
2022-12-20T06:17:37.038Z,5.05
2022-12-20T06:18:36.882Z,5.08
2022-12-20T06:19:36.864Z,5.11
2022-12-20T06:20:36.859Z,5.14
2022-12-20T06:21:36.835Z,5.20
2022-12-20T06:22:36.835Z,5.27
2022-12-20T06:23:36.814Z,5.42
2022-12-20T06:24:36.816Z,5.58
2022-12-20T06:25:37.464Z,5.60
2022-12-20T06:26:36.796Z,5.59
2022-12-20T06:27:36.754Z,5.59
2022-12-20T06:28:36.799Z,5.59
2022-12-20T06:29:36.739Z,5.69
2022-12-20T06:30:36.744Z,5.69
2022-12-20T06:31:36.825Z,5.78
2022-12-20T06:32:36.726Z,6.05
2022-12-20T06:33:36.706Z,6.14
2022-12-20T06:34:36.687Z,6.13
2022-12-20T06:35:36.669Z,6.30
2022-12-20T06:36:36.683Z,6.33
2022-12-20T06:37:36.655Z,6.35
2022-12-20T06:38:36.630Z,6.28
2022-12-20T06:39:36.607Z,6.33
2022-12-20T06:40:36.620Z,6.48
2022-12-20T06:41:36.600Z,6.51
2022-12-20T06:42:36.580Z,6.54
2022-12-20T06:43:36.573Z,6.61
2022-12-20T06:44:36.587Z,6.72
2022-12-20T06:45:41.592Z,6.68
2022-12-20T06:46:37.589Z,6.46
2022-12-20T06:47:36.513Z,6.36
2022-12-20T06:48:36.508Z,6.33
2022-12-20T06:49:36.486Z,6.35
2022-12-20T06:50:36.477Z,6.39
2022-12-20T06:51:36.456Z,6.63
2022-12-20T06:52:36.447Z,6.63
2022-12-20T06:53:36.678Z,6.53
2022-12-20T06:54:36.434Z,6.38
2022-12-20T06:55:36.453Z,6.32
2022-12-20T06:56:41.231Z,6.25
2022-12-20T06:57:37.375Z,6.25
2022-12-20T06:58:36.396Z,6.16
2022-12-20T06:59:36.364Z,6.03
2022-12-20T07:00:36.503Z,5.93
2022-12-20T07:01:36.504Z,5.98
2022-12-20T07:02:36.462Z,5.96
2022-12-20T07:03:36.361Z,5.96
2022-12-20T07:04:36.311Z,5.93
2022-12-20T07:05:36.282Z,5.88
2022-12-20T07:06:36.276Z,5.83
2022-12-20T07:07:44.358Z,5.83
2022-12-20T07:08:37.253Z,5.78
2022-12-20T07:09:36.272Z,5.73
2022-12-20T07:10:36.248Z,5.65
2022-12-20T07:11:36.220Z,5.58
2022-12-20T07:12:36.223Z,5.49
2022-12-20T07:13:36.190Z,5.48
2022-12-20T07:14:36.217Z,5.44
2022-12-20T07:15:36.184Z,5.38
2022-12-20T07:16:36.262Z,5.33
2022-12-20T07:17:36.132Z,5.35
2022-12-20T07:18:36.153Z,5.30
2022-12-20T07:19:36.125Z,5.33
2022-12-20T07:20:36.129Z,5.30
2022-12-20T07:21:36.114Z,5.30
2022-12-20T07:22:36.073Z,5.29
2022-12-20T07:23:36.128Z,5.30
2022-12-20T07:24:36.068Z,5.32
2022-12-20T07:25:36.069Z,5.32
2022-12-20T07:26:36.028Z,5.32
2022-12-20T07:27:36.058Z,5.32
2022-12-20T07:28:36.019Z,5.32
2022-12-20T07:29:36.004Z,5.35
2022-12-20T07:30:36.049Z,5.38
2022-12-20T07:31:36.075Z,5.40
2022-12-20T07:32:36.179Z,5.38
2022-12-20T07:33:35.931Z,5.38
2022-12-20T07:34:35.965Z,5.42
2022-12-20T07:35:35.905Z,5.42
2022-12-20T07:36:35.898Z,5.45
2022-12-20T07:37:35.880Z,5.47
2022-12-20T07:38:35.866Z,5.51
2022-12-20T07:39:35.874Z,5.52
2022-12-20T07:40:35.867Z,5.52
2022-12-20T07:41:35.843Z,5.55
2022-12-20T07:42:39.158Z,5.59
2022-12-20T07:43:35.893Z,5.59
2022-12-20T07:44:35.803Z,5.56
2022-12-20T07:45:35.834Z,5.59
2022-12-20T07:46:35.859Z,5.62
2022-12-20T07:47:35.777Z,5.62
2022-12-20T07:48:35.791Z,5.62
2022-12-20T07:49:35.730Z,5.63
2022-12-20T07:50:35.722Z,5.62
2022-12-20T07:51:35.699Z,5.63
2022-12-20T07:52:35.697Z,5.60
2022-12-20T07:53:35.681Z,5.62
2022-12-20T07:54:35.787Z,5.60
2022-12-20T07:55:35.667Z,5.59
2022-12-20T07:56:40.867Z,5.60
2022-12-20T07:57:36.668Z,5.60
2022-12-20T07:58:35.642Z,5.60
2022-12-20T07:59:35.591Z,5.60
2022-12-20T08:00:35.589Z,5.60
2022-12-20T08:01:35.776Z,5.60
2022-12-20T08:02:35.915Z,5.60
2022-12-20T08:03:35.719Z,5.59
2022-12-20T08:04:35.725Z,5.59
2022-12-20T08:05:35.700Z,5.60
2022-12-20T08:06:35.545Z,5.59
2022-12-20T08:07:35.508Z,5.60
2022-12-20T08:08:35.504Z,5.62
2022-12-20T08:09:35.496Z,5.62
2022-12-20T08:10:35.510Z,5.60
2022-12-20T08:11:35.457Z,5.62
2022-12-20T08:12:35.438Z,5.62
2022-12-20T08:13:38.193Z,5.62
2022-12-20T08:14:36.425Z,5.62
2022-12-20T08:15:35.398Z,5.59
2022-12-20T08:16:35.444Z,5.58
2022-12-20T08:17:35.412Z,5.59
2022-12-20T08:18:35.374Z,5.60
2022-12-20T08:19:35.334Z,5.59
2022-12-20T08:20:35.336Z,5.59
2022-12-20T08:21:35.315Z,5.58
2022-12-20T08:22:35.326Z,5.58
2022-12-20T08:23:35.297Z,5.60
2022-12-20T08:24:35.284Z,5.62
2022-12-20T08:25:41.246Z,5.59
2022-12-20T08:26:36.261Z,5.59
2022-12-20T08:27:35.268Z,5.59
2022-12-20T08:28:35.242Z,5.58
2022-12-20T08:29:35.261Z,5.59
2022-12-20T08:30:35.221Z,5.60
2022-12-20T08:31:35.256Z,5.62
2022-12-20T08:32:35.170Z,5.60
2022-12-20T08:33:35.162Z,5.60
2022-12-20T08:34:35.153Z,5.60
2022-12-20T08:35:35.172Z,5.60
2022-12-20T08:36:35.167Z,5.62
2022-12-20T08:37:35.096Z,5.59
2022-12-20T08:38:35.101Z,5.60
2022-12-20T08:39:35.094Z,5.62
2022-12-20T08:40:35.064Z,5.63
2022-12-20T08:41:35.058Z,5.63
2022-12-20T08:42:35.072Z,5.63
2022-12-20T08:43:35.026Z,5.62
2022-12-20T08:44:35.029Z,5.63
2022-12-20T08:45:35.017Z,5.65
2022-12-20T08:46:35.101Z,5.65
2022-12-20T08:47:34.977Z,5.66
2022-12-20T08:48:35.372Z,5.69
2022-12-20T08:49:35.023Z,5.69
2022-12-20T08:50:35.019Z,5.69
2022-12-20T08:51:35.033Z,5.70
2022-12-20T08:52:34.927Z,5.73
2022-12-20T08:53:34.956Z,5.74
2022-12-20T08:54:34.908Z,5.81
2022-12-20T08:55:34.872Z,5.83
2022-12-20T08:56:34.875Z,5.84
2022-12-20T08:57:34.856Z,5.87
2022-12-20T08:58:34.865Z,5.84
2022-12-20T08:59:34.833Z,5.85
2022-12-20T09:00:34.846Z,5.90
2022-12-20T09:01:34.951Z,5.88
2022-12-20T09:02:34.979Z,5.88
2022-12-20T09:03:34.881Z,5.88
2022-12-20T09:04:34.920Z,5.92
2022-12-20T09:05:34.753Z,5.90
2022-12-20T09:06:34.742Z,5.92
2022-12-20T09:07:34.738Z,5.93
2022-12-20T09:08:34.711Z,5.95
2022-12-20T09:09:34.711Z,5.95
2022-12-20T09:10:34.686Z,5.96
2022-12-20T09:11:34.697Z,5.98
2022-12-20T09:12:34.695Z,5.99
2022-12-20T09:13:39.631Z,6.03
2022-12-20T09:14:35.652Z,6.05
2022-12-20T09:15:34.785Z,6.08
2022-12-20T09:16:34.620Z,6.08
2022-12-20T09:17:34.631Z,6.11
2022-12-20T09:18:34.583Z,6.16
2022-12-20T09:19:34.637Z,6.17
2022-12-20T09:20:34.560Z,6.19
2022-12-20T09:21:34.580Z,6.20
2022-12-20T09:22:34.538Z,6.20
2022-12-20T09:23:34.545Z,6.20
2022-12-20T09:24:34.608Z,6.24
2022-12-20T09:25:34.522Z,6.24
2022-12-20T09:26:34.553Z,6.28
2022-12-20T09:27:34.508Z,6.27
2022-12-20T09:28:34.463Z,6.27
2022-12-20T09:29:35.806Z,6.32
2022-12-20T09:30:34.455Z,6.35
2022-12-20T09:31:34.470Z,6.38
2022-12-20T09:32:34.420Z,6.42
2022-12-20T09:33:34.406Z,6.42
2022-12-20T09:34:34.386Z,6.48
2022-12-20T09:35:34.375Z,6.50
2022-12-20T09:36:34.792Z,6.54
2022-12-20T09:37:34.352Z,6.57
2022-12-20T09:38:34.366Z,6.55
2022-12-20T09:39:34.324Z,6.60
2022-12-20T09:40:34.314Z,6.61
2022-12-20T09:41:34.311Z,6.63
2022-12-20T09:42:34.298Z,6.64
2022-12-20T09:43:34.332Z,6.68
2022-12-20T09:44:34.263Z,6.73
2022-12-20T09:45:34.251Z,6.72
2022-12-20T09:46:34.312Z,6.73
2022-12-20T09:47:34.250Z,6.75
2022-12-20T09:48:34.203Z,6.75
2022-12-20T09:49:34.200Z,6.78
2022-12-20T09:50:34.196Z,6.79
2022-12-20T09:51:34.182Z,6.78
2022-12-20T09:52:34.147Z,6.81
2022-12-20T09:53:34.203Z,6.81
2022-12-20T09:54:34.148Z,6.82
2022-12-20T09:55:34.160Z,6.82
2022-12-20T09:56:34.108Z,6.82
2022-12-20T09:57:34.080Z,6.83
2022-12-20T09:58:34.079Z,6.86
2022-12-20T09:59:38.946Z,6.83
2022-12-20T10:00:36.676Z,6.89
2022-12-20T10:01:38.808Z,6.87
2022-12-20T10:02:58.344Z,6.90
2022-12-20T10:03:35.167Z,6.91
2022-12-20T10:04:34.253Z,6.96
2022-12-20T10:05:40.605Z,6.99
2022-12-20T10:06:34.977Z,7.01
2022-12-20T10:07:33.970Z,7.04
2022-12-20T10:08:34.017Z,7.04
2022-12-20T10:09:33.953Z,7.01
2022-12-20T10:10:33.931Z,7.04
2022-12-20T10:11:40.632Z,6.99
2022-12-20T10:12:35.616Z,7.00
2022-12-20T10:13:33.985Z,7.04
2022-12-20T10:14:33.916Z,7.05
2022-12-20T10:15:33.916Z,7.08
2022-12-20T10:16:33.943Z,7.11
2022-12-20T10:17:33.876Z,7.12
2022-12-20T10:18:33.868Z,7.14
2022-12-20T10:19:33.815Z,7.14
2022-12-20T10:20:33.796Z,7.15
2022-12-20T10:21:33.785Z,7.18
2022-12-20T10:22:33.759Z,7.16
2022-12-20T10:23:33.946Z,7.18
2022-12-20T10:24:33.782Z,7.18
2022-12-20T10:25:33.744Z,7.19
2022-12-20T10:26:33.714Z,7.23
2022-12-20T10:27:33.793Z,7.23
2022-12-20T10:28:33.685Z,7.23
2022-12-20T10:29:33.699Z,7.21
2022-12-20T10:30:33.724Z,7.21
2022-12-20T10:31:33.686Z,7.19
2022-12-20T10:32:33.635Z,7.19
2022-12-20T10:33:33.651Z,7.21
2022-12-20T10:34:38.963Z,7.19
2022-12-20T10:35:35.156Z,7.23
2022-12-20T10:36:33.635Z,7.21
2022-12-20T10:37:33.593Z,7.23
2022-12-20T10:38:33.557Z,7.23
2022-12-20T10:39:33.564Z,7.24
2022-12-20T10:41:01.367Z,7.23
2022-12-20T10:41:34.518Z,7.27
2022-12-20T10:42:34.484Z,7.29
2022-12-20T10:43:33.559Z,7.33
2022-12-20T10:44:33.491Z,7.37
2022-12-20T10:45:36.222Z,7.41
2022-12-20T10:46:33.500Z,7.44
2022-12-20T10:47:33.474Z,7.47
2022-12-20T10:48:33.613Z,7.51
2022-12-20T10:49:33.433Z,7.52
2022-12-20T10:50:33.422Z,7.58
2022-12-20T10:51:33.407Z,7.66
2022-12-20T10:52:33.465Z,7.69
2022-12-20T10:53:33.416Z,7.66
2022-12-20T10:54:33.350Z,7.67
2022-12-20T10:55:33.388Z,7.67
2022-12-20T10:56:33.325Z,7.66
2022-12-20T10:57:33.327Z,7.63
2022-12-20T10:58:33.293Z,7.66
2022-12-20T10:59:33.287Z,7.62
2022-12-20T11:00:33.288Z,7.62
2022-12-20T11:01:33.348Z,7.62
2022-12-20T11:02:39.915Z,7.62
2022-12-20T11:03:34.515Z,7.66
2022-12-20T11:04:33.352Z,7.66
2022-12-20T11:05:33.274Z,7.67
2022-12-20T11:06:33.185Z,7.66
2022-12-20T11:07:33.208Z,7.66
2022-12-20T11:08:39.151Z,7.66
2022-12-20T11:09:34.158Z,7.63
2022-12-20T11:10:33.140Z,7.62
2022-12-20T11:11:33.138Z,7.62
2022-12-20T11:12:33.101Z,7.60
2022-12-20T11:13:33.110Z,7.60
2022-12-20T11:14:38.889Z,7.60
2022-12-20T11:15:35.055Z,7.58
2022-12-20T11:16:33.088Z,7.62
2022-12-20T11:17:33.042Z,7.60
2022-12-20T11:18:33.059Z,7.58
2022-12-20T11:19:33.036Z,7.57
2022-12-20T11:20:33.033Z,7.60
2022-12-20T11:21:33.011Z,7.57
2022-12-20T11:22:33.043Z,7.60
2022-12-20T11:23:32.973Z,7.55
2022-12-20T11:24:32.960Z,7.54
2022-12-20T11:25:32.974Z,7.57
2022-12-20T11:26:32.939Z,7.58
2022-12-20T11:27:32.997Z,7.60
2022-12-20T11:28:32.931Z,7.62
2022-12-20T11:29:32.929Z,7.66
2022-12-20T11:30:32.886Z,7.66
2022-12-20T11:31:32.908Z,7.60
2022-12-20T11:32:32.845Z,7.60
2022-12-20T11:33:32.902Z,7.60
2022-12-20T11:34:32.820Z,7.60
2022-12-20T11:35:32.830Z,7.63
2022-12-20T11:36:32.773Z,7.62
2022-12-20T11:37:32.789Z,7.66
2022-12-20T11:38:32.762Z,7.69
2022-12-20T11:39:32.762Z,7.71
2022-12-20T11:40:32.749Z,7.71
2022-12-20T11:41:32.729Z,7.74
2022-12-20T11:42:32.708Z,7.73
2022-12-20T11:43:39.061Z,7.74
2022-12-20T11:44:33.687Z,7.73
2022-12-20T11:45:32.698Z,7.74
2022-12-20T11:46:32.662Z,7.74
2022-12-20T11:47:32.646Z,7.76
2022-12-20T11:48:32.663Z,7.76
2022-12-20T11:49:32.615Z,7.76
2022-12-20T11:50:32.843Z,7.76
2022-12-20T11:51:32.649Z,7.77
2022-12-20T11:52:32.582Z,7.79
2022-12-20T11:53:32.564Z,7.81
2022-12-20T11:54:32.551Z,7.81
2022-12-20T11:55:32.564Z,7.79
2022-12-20T11:56:32.521Z,7.81
2022-12-20T11:57:48.104Z,7.77
2022-12-20T11:58:33.483Z,7.76
2022-12-20T11:59:32.490Z,7.79
2022-12-20T12:00:32.481Z,7.77
2022-12-20T12:01:32.521Z,7.79
2022-12-20T12:02:32.540Z,7.81
2022-12-20T12:03:32.429Z,7.82
2022-12-20T12:04:32.410Z,7.84
2022-12-20T12:05:32.508Z,7.85
2022-12-20T12:06:32.396Z,7.85
2022-12-20T12:07:32.374Z,7.89
2022-12-20T12:08:32.360Z,7.91
2022-12-20T12:09:32.341Z,7.91
2022-12-20T12:10:32.383Z,7.91
2022-12-20T12:12:05.020Z,7.92
2022-12-20T12:12:33.414Z,7.95
2022-12-20T12:13:32.313Z,7.95
2022-12-20T12:14:32.323Z,7.96
2022-12-20T12:15:32.310Z,8.00
2022-12-20T12:16:32.312Z,8.03
2022-12-20T12:17:32.250Z,8.03
2022-12-20T12:18:32.441Z,8.04
2022-12-20T12:19:32.217Z,8.07
2022-12-20T12:20:32.228Z,8.07
2022-12-20T12:21:32.187Z,8.06
2022-12-20T12:22:32.411Z,8.07
2022-12-20T12:23:32.171Z,8.06
2022-12-20T12:24:32.884Z,8.04
2022-12-20T12:25:32.176Z,8.04
2022-12-20T12:26:32.114Z,8.04
2022-12-20T12:27:32.108Z,8.06
2022-12-20T12:28:32.092Z,8.03
2022-12-20T12:29:32.123Z,8.02
2022-12-20T12:30:32.068Z,8.00
2022-12-20T12:31:32.146Z,8.00
2022-12-20T12:32:32.039Z,7.99
2022-12-20T12:33:38.604Z,7.99
2022-12-20T12:34:33.018Z,8.00
2022-12-20T12:35:32.056Z,7.96
2022-12-20T12:36:32.019Z,8.00
2022-12-20T12:37:32.950Z,8.00
2022-12-20T12:38:32.064Z,8.02
2022-12-20T12:39:31.951Z,8.00
2022-12-20T12:40:31.978Z,7.99
2022-12-20T12:41:31.937Z,8.00
2022-12-20T12:42:31.925Z,7.96
2022-12-20T12:43:32.850Z,7.99
2022-12-20T12:44:31.877Z,7.99
2022-12-20T12:45:31.937Z,7.99
2022-12-20T12:46:31.925Z,7.99
2022-12-20T12:47:31.867Z,8.00
2022-12-20T12:48:31.849Z,8.00
2022-12-20T12:49:31.862Z,8.00
2022-12-20T12:50:31.824Z,8.02
2022-12-20T12:51:31.787Z,8.00
2022-12-20T12:52:35.711Z,7.99
2022-12-20T12:53:31.755Z,8.00
2022-12-20T12:54:31.730Z,8.00
2022-12-20T12:55:31.739Z,8.02
2022-12-20T12:56:47.397Z,8.00
2022-12-20T12:57:32.720Z,8.00
2022-12-20T12:58:31.708Z,8.00
2022-12-20T12:59:31.674Z,8.02
2022-12-20T13:00:31.679Z,8.02
2022-12-20T13:01:31.923Z,7.96
2022-12-20T13:02:31.879Z,7.96
2022-12-20T13:03:31.687Z,7.96
2022-12-20T13:04:31.612Z,7.95
2022-12-20T13:05:31.599Z,7.94
2022-12-20T13:06:31.582Z,7.92
2022-12-20T13:07:31.568Z,7.92
2022-12-20T13:08:31.578Z,7.91
2022-12-20T13:09:31.548Z,7.89
2022-12-20T13:10:31.562Z,7.89
2022-12-20T13:11:31.568Z,7.86
2022-12-20T13:12:31.509Z,7.85
2022-12-20T13:13:31.779Z,7.82
2022-12-20T13:14:31.474Z,7.81
2022-12-20T13:15:31.468Z,7.77
2022-12-20T13:17:02.760Z,7.77
2022-12-20T13:17:32.453Z,7.76
2022-12-20T13:18:31.430Z,7.74